createdAt,value
2022-08-26T00:01:29.219Z,997.9
2022-08-26T00:04:25.696Z,997.9
2022-08-26T00:06:25.257Z,997.9
2022-08-26T00:08:25.504Z,997.9
2022-08-26T00:11:26.438Z,997.9
2022-08-26T00:14:29.635Z,997.9
2022-08-26T00:16:25.338Z,997.9
2022-08-26T00:19:25.226Z,997.9
2022-08-26T00:21:25.228Z,997.9
2022-08-26T00:23:25.238Z,998
2022-08-26T00:26:25.250Z,997.9
2022-08-26T00:28:25.284Z,997.9
2022-08-26T00:31:25.319Z,997.9
2022-08-26T00:34:32.432Z,997.9
2022-08-26T00:36:25.305Z,997.9
2022-08-26T00:39:25.213Z,997.9
2022-08-26T00:41:25.243Z,997.9
2022-08-26T00:43:25.232Z,997.9
2022-08-26T00:46:25.431Z,997.9
2022-08-26T00:49:25.204Z,997.9
2022-08-26T00:51:28.302Z,997.8
2022-08-26T00:53:25.929Z,997.9
2022-08-26T00:55:25.243Z,997.9
2022-08-26T00:57:25.271Z,997.9
2022-08-26T01:00:25.227Z,997.9
2022-08-26T01:02:25.300Z,998
2022-08-26T01:05:25.243Z,998
2022-08-26T01:07:35.541Z,997.9
2022-08-26T01:09:35.522Z,997.9
2022-08-26T01:12:25.266Z,997.9
2022-08-26T01:14:25.267Z,997.9
2022-08-26T01:16:25.314Z,997.9
2022-08-26T01:19:25.272Z,998
2022-08-26T01:21:25.301Z,998
2022-08-26T01:24:25.236Z,998
2022-08-26T01:26:25.262Z,998
2022-08-26T01:28:25.285Z,998
2022-08-26T01:30:25.285Z,997.9
2022-08-26T01:32:25.678Z,997.9
2022-08-26T01:35:25.271Z,997.9
2022-08-26T01:37:25.290Z,997.9
2022-08-26T01:39:25.331Z,998
2022-08-26T01:41:27.123Z,998
2022-08-26T01:44:25.273Z,998
2022-08-26T01:46:25.296Z,997.9
2022-08-26T01:49:26.030Z,997.9
2022-08-26T01:51:25.292Z,997.9
2022-08-26T01:54:25.267Z,997.9
2022-08-26T01:57:25.284Z,997.9
2022-08-26T02:00:25.266Z,997.9
2022-08-26T02:02:25.891Z,997.9
2022-08-26T02:05:25.279Z,997.9
2022-08-26T02:08:25.429Z,997.9
2022-08-26T02:11:25.273Z,998
2022-08-26T02:13:25.297Z,998
2022-08-26T02:16:25.347Z,998
2022-08-26T02:18:25.283Z,998
2022-08-26T02:21:25.289Z,998
2022-08-26T02:24:27.277Z,998
2022-08-26T02:26:25.282Z,998.1
2022-08-26T02:28:26.717Z,998.1
2022-08-26T02:31:25.333Z,998
2022-08-26T02:34:25.462Z,998.1
2022-08-26T02:37:25.299Z,998.1
2022-08-26T02:40:25.341Z,998.1
2022-08-26T02:42:25.307Z,998.1
2022-08-26T02:45:25.294Z,998.1
2022-08-26T02:47:25.298Z,998.1
2022-08-26T02:50:25.313Z,998.1
2022-08-26T02:53:25.604Z,998.1
2022-08-26T02:56:25.289Z,998.1
2022-08-26T02:59:25.309Z,998.1
2022-08-26T03:02:25.365Z,998.1
2022-08-26T03:04:26.114Z,998.1
2022-08-26T03:07:25.303Z,998.1
2022-08-26T03:09:25.343Z,998.1
2022-08-26T03:12:25.568Z,998
2022-08-26T03:14:25.303Z,998
2022-08-26T03:16:25.403Z,998
2022-08-26T03:19:25.254Z,998
2022-08-26T03:21:25.659Z,998
2022-08-26T03:24:25.316Z,998
2022-08-26T03:26:25.354Z,998
2022-08-26T03:29:25.271Z,998
2022-08-26T03:31:25.398Z,998.1
2022-08-26T03:35:30.111Z,998.1
2022-08-26T03:36:25.971Z,998
2022-08-26T03:39:25.323Z,998
2022-08-26T03:41:25.325Z,998
2022-08-26T03:44:25.332Z,998
2022-08-26T03:47:25.306Z,998
2022-08-26T03:49:25.323Z,998
2022-08-26T03:51:25.994Z,998
2022-08-26T03:54:25.330Z,998
2022-08-26T03:57:25.335Z,997.9
2022-08-26T04:00:25.293Z,998
2022-08-26T04:03:25.356Z,998
2022-08-26T04:06:25.323Z,998.1
2022-08-26T04:08:25.340Z,998.1
2022-08-26T04:11:25.280Z,998.1
2022-08-26T04:13:25.317Z,998.1
2022-08-26T04:15:25.344Z,998.1
2022-08-26T04:18:25.297Z,998
2022-08-26T04:20:25.350Z,998
2022-08-26T04:23:25.357Z,998
2022-08-26T04:26:25.358Z,998
2022-08-26T04:28:25.345Z,998
2022-08-26T04:30:25.367Z,998
2022-08-26T04:32:25.392Z,998
2022-08-26T04:35:26.212Z,998
2022-08-26T04:37:25.335Z,998
2022-08-26T04:40:25.902Z,998
2022-08-26T04:43:25.332Z,997.9
2022-08-26T04:46:25.396Z,998
2022-08-26T04:48:25.352Z,998
2022-08-26T04:50:25.355Z,998.1
2022-08-26T04:53:25.338Z,998
2022-08-26T04:56:25.361Z,998.1
2022-08-26T04:59:25.321Z,998.1
2022-08-26T05:01:25.414Z,998.1
2022-08-26T05:04:25.411Z,998.2
2022-08-26T05:06:25.396Z,998.2
2022-08-26T05:08:25.512Z,998.2
2022-08-26T05:11:25.352Z,998.2
2022-08-26T05:13:25.344Z,998.3
2022-08-26T05:16:25.406Z,998.3
2022-08-26T05:19:25.354Z,998.3
2022-08-26T05:22:25.372Z,998.3
2022-08-26T05:24:25.380Z,998.3
2022-08-26T05:27:25.371Z,998.3
2022-08-26T05:33:25.357Z,998.3
2022-08-26T05:36:26.796Z,998.3
2022-08-26T05:38:30.174Z,998.3
2022-08-26T05:41:25.312Z,998.3
2022-08-26T05:44:25.313Z,998.3
2022-08-26T05:46:25.395Z,998.3
2022-08-26T05:49:26.283Z,998.3
2022-08-26T05:51:25.961Z,998.3
2022-08-26T05:54:25.344Z,998.3
2022-08-26T05:57:25.351Z,998.4
2022-08-26T06:00:25.323Z,998.4
2022-08-26T06:03:25.340Z,998.5
2022-08-26T06:05:25.355Z,998.5
2022-08-26T06:08:25.338Z,998.5
2022-08-26T06:10:31.908Z,998.5
2022-08-26T06:13:25.377Z,998.5
2022-08-26T06:16:25.388Z,998.5
2022-08-26T06:18:25.410Z,998.5
2022-08-26T06:21:25.362Z,998.5
2022-08-26T06:23:25.433Z,998.5
2022-08-26T06:25:25.767Z,998.5
2022-08-26T06:28:25.350Z,998.6
2022-08-26T06:30:25.421Z,998.6
2022-08-26T06:33:25.352Z,998.6
2022-08-26T06:35:25.394Z,998.6
2022-08-26T06:38:25.354Z,998.6
2022-08-26T06:40:25.443Z,998.6
2022-08-26T06:42:25.449Z,998.6
2022-08-26T06:45:25.396Z,998.6
2022-08-26T06:47:25.402Z,998.6
2022-08-26T06:50:25.427Z,998.6
2022-08-26T06:53:25.394Z,998.7
2022-08-26T06:56:25.348Z,998.6
2022-08-26T06:58:25.384Z,998.7
2022-08-26T07:01:25.457Z,998.7
2022-08-26T07:03:25.389Z,998.7
2022-08-26T07:06:25.416Z,998.7
2022-08-26T07:10:25.395Z,998.7
2022-08-26T07:13:29.856Z,998.7
2022-08-26T07:15:27.232Z,998.7
2022-08-26T07:18:25.393Z,998.8
2022-08-26T07:21:25.403Z,998.7
2022-08-26T07:23:25.396Z,998.8
2022-08-26T07:25:25.423Z,998.8
2022-08-26T07:27:25.401Z,998.8
2022-08-26T07:29:25.416Z,998.8
2022-08-26T07:31:25.471Z,998.8
2022-08-26T07:34:25.423Z,998.8
2022-08-26T07:37:25.396Z,998.7
2022-08-26T07:39:25.418Z,998.7
2022-08-26T07:42:25.380Z,998.7
2022-08-26T07:45:25.406Z,998.7
2022-08-26T07:48:25.401Z,998.7
2022-08-26T07:51:25.427Z,998.7
2022-08-26T07:53:25.436Z,998.8
2022-08-26T07:56:25.393Z,998.7
2022-08-26T07:58:25.421Z,998.7
2022-08-26T08:01:25.706Z,998.7
2022-08-26T08:04:26.595Z,998.7
2022-08-26T08:06:26.948Z,998.7
2022-08-26T08:09:25.442Z,998.7
2022-08-26T08:12:25.401Z,998.6
2022-08-26T08:14:25.466Z,998.7
2022-08-26T08:17:25.404Z,998.7
2022-08-26T08:19:28.426Z,998.7
2022-08-26T08:22:25.404Z,998.7
2022-08-26T08:25:25.404Z,998.6
2022-08-26T08:27:25.421Z,998.6
2022-08-26T08:30:25.431Z,998.6
2022-08-26T08:33:25.415Z,998.7
2022-08-26T08:36:25.410Z,998.6
2022-08-26T08:38:25.445Z,998.6
2022-08-26T08:41:25.384Z,998.6
2022-08-26T08:43:25.394Z,998.6
2022-08-26T08:45:25.403Z,998.6
2022-08-26T08:47:25.378Z,998.6
2022-08-26T08:50:25.441Z,998.7
2022-08-26T08:53:25.375Z,998.6
2022-08-26T08:55:25.401Z,998.6
2022-08-26T08:58:25.415Z,998.6
2022-08-26T09:01:25.529Z,998.6
2022-08-26T09:04:25.392Z,998.6
2022-08-26T09:06:25.437Z,998.6
2022-08-26T09:09:25.412Z,998.6
2022-08-26T09:11:25.407Z,998.6
2022-08-26T09:13:26.349Z,998.6
2022-08-26T09:15:26.486Z,998.6
2022-08-26T09:17:25.452Z,998.6
2022-08-26T09:20:25.441Z,998.5
2022-08-26T09:22:25.472Z,998.5
2022-08-26T09:25:25.409Z,998.6
2022-08-26T09:28:25.446Z,998.5
2022-08-26T09:30:25.522Z,998.5
2022-08-26T09:33:25.448Z,998.5
2022-08-26T09:35:25.450Z,998.5
2022-08-26T09:38:26.649Z,998.5
2022-08-26T09:41:25.442Z,998.5
2022-08-26T09:43:25.418Z,998.5
2022-08-26T09:45:25.441Z,998.5
2022-08-26T09:48:25.439Z,998.5
2022-08-26T09:50:28.717Z,998.4
2022-08-26T09:53:28.463Z,998.4
2022-08-26T09:56:25.432Z,998.4
2022-08-26T09:58:25.467Z,998.4
2022-08-26T10:01:25.484Z,998.3
2022-08-26T10:04:25.519Z,998.2
2022-08-26T10:07:25.438Z,998.1
2022-08-26T10:09:25.447Z,998.1
2022-08-26T10:12:25.438Z,998
2022-08-26T10:14:25.639Z,998
2022-08-26T10:17:25.433Z,997.9
2022-08-26T10:20:25.481Z,997.9
2022-08-26T10:22:25.477Z,997.9
2022-08-26T10:25:25.438Z,997.8
2022-08-26T10:27:25.435Z,997.8
2022-08-26T10:29:25.519Z,997.8
2022-08-26T10:32:25.549Z,997.7
2022-08-26T10:34:25.440Z,997.7
2022-08-26T10:36:25.482Z,997.6
2022-08-26T10:39:25.448Z,997.6
2022-08-26T10:42:25.468Z,997.6
2022-08-26T10:44:25.458Z,997.6
2022-08-26T10:47:25.443Z,997.6
2022-08-26T10:49:25.451Z,997.6
2022-08-26T10:52:28.520Z,997.5
2022-08-26T10:55:25.440Z,997.6
2022-08-26T10:57:25.476Z,997.5
2022-08-26T11:00:25.449Z,997.4
2022-08-26T11:02:25.501Z,997.5
2022-08-26T11:05:25.487Z,997.5
2022-08-26T11:08:25.468Z,997.4
2022-08-26T11:10:25.462Z,997.5
2022-08-26T11:12:25.537Z,997.4
2022-08-26T11:14:28.571Z,997.4
2022-08-26T11:17:25.501Z,997.4
2022-08-26T11:20:25.506Z,997.3
2022-08-26T11:23:25.451Z,997.4
2022-08-26T11:25:29.856Z,997.3
2022-08-26T11:28:25.452Z,997.3
2022-08-26T11:30:25.479Z,997.3
2022-08-26T11:32:25.510Z,997.3
2022-08-26T11:35:25.492Z,997.3
2022-08-26T11:37:25.540Z,997.2
2022-08-26T11:40:25.514Z,997.2
2022-08-26T11:42:27.717Z,997.1
2022-08-26T11:45:25.518Z,997.1
2022-08-26T11:48:25.487Z,997
2022-08-26T11:50:25.759Z,997
2022-08-26T11:53:25.524Z,997
2022-08-26T11:56:25.484Z,997
2022-08-26T11:59:25.544Z,996.9
2022-08-26T12:02:25.476Z,996.9
2022-08-26T12:04:25.593Z,996.9
2022-08-26T12:07:25.432Z,996.9
2022-08-26T12:09:25.492Z,996.9
2022-08-26T12:12:25.509Z,996.9
2022-08-26T12:15:25.492Z,997
2022-08-26T12:18:28.633Z,997.1
2022-08-26T12:20:25.977Z,997
2022-08-26T12:23:25.556Z,997.1
2022-08-26T12:25:25.545Z,997.1
2022-08-26T12:28:25.488Z,997.1
2022-08-26T12:30:26.131Z,997.1
2022-08-26T12:32:25.511Z,997.1
2022-08-26T12:35:26.085Z,997.1
2022-08-26T12:38:25.485Z,997.1
2022-08-26T12:40:25.589Z,997.1
2022-08-26T12:43:25.539Z,997.1
2022-08-26T12:46:25.513Z,997
2022-08-26T12:48:25.518Z,996.9
2022-08-26T12:51:25.507Z,996.9
2022-08-26T12:53:25.541Z,996.9
2022-08-26T12:56:25.487Z,996.9
2022-08-26T12:58:25.530Z,996.9
2022-08-26T13:01:25.617Z,996.8
2022-08-26T13:03:25.591Z,996.7
2022-08-26T13:06:25.557Z,996.6
2022-08-26T13:09:25.539Z,996.5
2022-08-26T13:11:25.545Z,996.5
2022-08-26T13:14:25.502Z,996.5
2022-08-26T13:16:25.655Z,996.5
2022-08-26T13:20:25.549Z,996.5
2022-08-26T13:22:25.584Z,996.5
2022-08-26T13:25:25.519Z,996.5
2022-08-26T13:28:25.546Z,996.5
2022-08-26T13:30:25.591Z,996.6
2022-08-26T13:33:25.509Z,996.6
2022-08-26T13:35:25.593Z,996.5
2022-08-26T13:37:34.796Z,996.6
2022-08-26T13:40:25.639Z,996.6
2022-08-26T13:43:25.535Z,996.6
2022-08-26T13:46:25.586Z,996.6
2022-08-26T13:49:25.520Z,996.6
2022-08-26T13:52:30.432Z,996.5
2022-08-26T13:55:25.560Z,996.5
2022-08-26T13:57:25.529Z,996.5
2022-08-26T14:00:25.569Z,996.5
2022-08-26T14:03:25.565Z,996.6
2022-08-26T14:05:25.576Z,996.5
2022-08-26T14:08:25.532Z,996.5
2022-08-26T14:10:25.534Z,996.5
2022-08-26T14:13:25.521Z,996.5
2022-08-26T14:15:25.574Z,996.6
2022-08-26T14:17:25.660Z,996.6
2022-08-26T14:20:25.542Z,996.6
2022-08-26T14:22:25.566Z,996.6
2022-08-26T14:25:25.592Z,996.6
2022-08-26T14:33:25.645Z,996.6
2022-08-26T14:36:25.546Z,996.5
2022-08-26T14:39:25.535Z,996.5
2022-08-26T14:42:25.535Z,996.5
2022-08-26T14:45:25.513Z,996.5
2022-08-26T14:47:25.564Z,996.5
2022-08-26T14:50:25.564Z,996.5
2022-08-26T14:53:25.530Z,996.5
2022-08-26T14:55:25.560Z,996.4
2022-08-26T14:58:25.545Z,996.5
2022-08-26T15:01:29.073Z,996.4
2022-08-26T15:03:25.614Z,996.4
2022-08-26T15:06:25.566Z,996.5
2022-08-26T15:08:25.593Z,996.5
2022-08-26T15:11:25.561Z,996.6
2022-08-26T15:13:25.633Z,996.7
2022-08-26T15:16:25.626Z,996.8
2022-08-26T15:18:25.559Z,996.8
2022-08-26T15:20:25.601Z,996.9
2022-08-26T15:23:25.638Z,997.1
2022-08-26T15:26:25.561Z,997.2
2022-08-26T15:28:25.564Z,997.2
2022-08-26T15:30:25.560Z,997.2
2022-08-26T15:33:25.571Z,997.1
2022-08-26T15:35:25.609Z,997.1
2022-08-26T15:38:25.600Z,997.1
2022-08-26T15:40:25.605Z,997.1
2022-08-26T15:43:28.901Z,997.1
2022-08-26T15:45:26.065Z,997.1
2022-08-26T15:48:25.631Z,997.1
2022-08-26T15:50:25.621Z,997.1
2022-08-26T15:53:25.632Z,997.2
2022-08-26T15:55:25.636Z,997.1
2022-08-26T15:58:25.859Z,997.1
2022-08-26T16:01:27.611Z,997
2022-08-26T16:04:25.633Z,997.1
2022-08-26T16:06:25.613Z,997.1
2022-08-26T16:09:25.610Z,997.1
2022-08-26T16:12:25.592Z,997.1
2022-08-26T16:14:25.650Z,997.1
2022-08-26T16:17:25.602Z,997.2
2022-08-26T16:20:25.650Z,997.3
2022-08-26T16:23:25.598Z,997.4
2022-08-26T16:25:25.616Z,997.4
2022-08-26T16:28:26.059Z,997.5
2022-08-26T16:31:25.607Z,997.4
2022-08-26T16:33:29.154Z,997.5
2022-08-26T16:35:25.635Z,997.5
2022-08-26T16:37:25.633Z,997.5
2022-08-26T16:40:25.655Z,997.5
2022-08-26T16:42:25.605Z,997.4
2022-08-26T16:45:25.605Z,997.4
2022-08-26T16:48:25.625Z,997.4
2022-08-26T16:50:25.607Z,997.3
2022-08-26T16:53:25.626Z,997.3
2022-08-26T16:56:27.640Z,997.3
2022-08-26T16:59:25.645Z,997.2
2022-08-26T17:02:25.716Z,997.3
2022-08-26T17:05:25.613Z,997.3
2022-08-26T17:08:28.595Z,997.3
2022-08-26T17:10:25.645Z,997.3
2022-08-26T17:13:34.980Z,997.3
2022-08-26T17:15:25.762Z,997.3
2022-08-26T17:18:25.643Z,997.3
2022-08-26T17:21:25.652Z,997.3
2022-08-26T17:23:25.636Z,997.4
2022-08-26T17:26:25.629Z,997.5
2022-08-26T17:28:25.681Z,997.6
2022-08-26T17:31:25.673Z,997.7
2022-08-26T17:33:25.645Z,997.6
2022-08-26T17:36:27.767Z,997.6
2022-08-26T17:38:25.667Z,997.6
2022-08-26T17:41:25.650Z,997.7
2022-08-26T17:44:25.639Z,997.7
2022-08-26T17:46:25.731Z,997.7
2022-08-26T17:48:25.649Z,997.7
2022-08-26T17:51:25.637Z,997.8
2022-08-26T17:54:25.654Z,997.8
2022-08-26T17:56:25.705Z,997.8
2022-08-26T17:59:25.646Z,997.8
2022-08-26T18:02:25.739Z,997.8
2022-08-26T18:04:25.706Z,997.8
2022-08-26T18:07:25.638Z,997.8
2022-08-26T18:10:25.654Z,997.9
2022-08-26T18:13:25.609Z,997.8
2022-08-26T18:15:25.725Z,997.8
2022-08-26T18:17:25.646Z,997.9
2022-08-26T18:20:25.638Z,997.9
2022-08-26T18:22:25.659Z,997.9
2022-08-26T18:25:25.653Z,998
2022-08-26T18:27:25.721Z,998
2022-08-26T18:30:25.634Z,998
2022-08-26T18:32:25.650Z,998.1
2022-08-26T18:34:25.659Z,998.2
2022-08-26T18:36:25.688Z,998.3
2022-08-26T18:39:25.655Z,998.4
2022-08-26T18:41:25.669Z,998.4
2022-08-26T18:44:25.636Z,998.4
2022-08-26T18:46:25.720Z,998.5
2022-08-26T18:48:25.675Z,998.5
2022-08-26T18:51:25.679Z,998.5
2022-08-26T18:54:25.693Z,998.6
2022-08-26T18:57:25.678Z,998.7
2022-08-26T18:59:28.436Z,998.8
2022-08-26T19:02:25.757Z,998.8
2022-08-26T19:04:25.665Z,998.8
2022-08-26T19:06:25.705Z,998.9
2022-08-26T19:08:25.730Z,998.9
2022-08-26T19:11:31.924Z,998.9
2022-08-26T19:15:25.929Z,998.9
2022-08-26T19:18:25.674Z,998.9
2022-08-26T19:20:25.698Z,998.8
2022-08-26T19:23:31.722Z,998.9
2022-08-26T19:25:25.677Z,998.9
2022-08-26T19:27:25.697Z,998.9
2022-08-26T19:30:26.190Z,998.8
2022-08-26T19:33:25.640Z,998.8
2022-08-26T19:35:25.710Z,998.8
2022-08-26T19:38:25.671Z,998.8
2022-08-26T19:41:31.678Z,998.7
2022-08-26T19:43:25.658Z,998.7
2022-08-26T19:46:25.824Z,998.7
2022-08-26T19:49:25.658Z,998.7
2022-08-26T19:51:25.675Z,998.8
2022-08-26T19:54:25.662Z,998.8
2022-08-26T19:57:25.678Z,998.9
2022-08-26T19:59:25.711Z,998.9
2022-08-26T20:02:26.484Z,999
2022-08-26T20:05:25.649Z,999
2022-08-26T20:07:25.681Z,999.1
2022-08-26T20:10:25.687Z,999
2022-08-26T20:13:25.650Z,999
2022-08-26T20:15:25.675Z,998.9
2022-08-26T20:18:25.732Z,998.9
2022-08-26T20:21:25.687Z,998.9
2022-08-26T20:23:25.714Z,998.9
2022-08-26T20:26:25.718Z,999
2022-08-26T20:29:25.703Z,999
2022-08-26T20:31:25.863Z,999
2022-08-26T20:34:25.951Z,999.1
2022-08-26T20:37:25.693Z,999.1
2022-08-26T20:40:25.743Z,999.1
2022-08-26T20:42:25.707Z,999.1
2022-08-26T20:45:25.726Z,999.2
2022-08-26T20:48:25.723Z,999.3
2022-08-26T20:50:25.727Z,999.4
2022-08-26T20:53:25.783Z,999.6
2022-08-26T20:55:25.717Z,999.6
2022-08-26T20:57:25.733Z,999.7
2022-08-26T21:00:26.603Z,999.7
2022-08-26T21:02:25.705Z,1000.7
2022-08-26T21:05:25.722Z,999.8
2022-08-26T21:07:25.742Z,999.9
2022-08-26T21:22:25.706Z,999.7
2022-08-26T21:25:25.711Z,999.7
2022-08-26T21:27:26.479Z,999.7
2022-08-26T21:30:25.748Z,999.6
2022-08-26T21:36:25.766Z,999.4
2022-08-26T21:39:25.781Z,999.3
2022-08-26T21:42:25.741Z,999.3
2022-08-26T21:45:25.801Z,999.3
2022-08-26T21:48:25.722Z,999.4
2022-08-26T21:51:25.765Z,999.4
2022-08-26T21:53:25.760Z,999.4
2022-08-26T21:56:25.725Z,999.4
2022-08-26T21:59:25.763Z,999.4
2022-08-26T22:01:25.870Z,999.3
2022-08-26T22:04:25.744Z,999.3
2022-08-26T22:07:25.774Z,999.3
2022-08-26T22:10:25.763Z,999.3
2022-08-26T22:12:25.735Z,999.4
2022-08-26T22:14:29.830Z,999.4
2022-08-26T22:17:25.738Z,999.4
2022-08-26T22:19:25.791Z,999.4
2022-08-26T22:22:25.725Z,999.4
2022-08-26T22:24:25.768Z,999.4
2022-08-26T22:27:25.792Z,999.4
2022-08-26T22:30:25.750Z,999.5
2022-08-26T22:33:25.756Z,999.5
2022-08-26T22:35:28.652Z,999.5
2022-08-26T22:37:29.317Z,999.5
2022-08-26T22:40:25.849Z,999.5
2022-08-26T22:42:25.764Z,999.5
2022-08-26T22:44:25.767Z,999.5
2022-08-26T22:47:25.734Z,999.6
2022-08-26T22:49:25.782Z,999.6
2022-08-26T22:51:25.785Z,999.6
2022-08-26T22:54:25.740Z,999.6
2022-08-26T22:56:25.812Z,999.6
2022-08-26T22:59:25.779Z,999.6
2022-08-26T23:01:25.850Z,999.6
2022-08-26T23:04:25.738Z,999.6
2022-08-26T23:06:26.155Z,999.6
2022-08-26T23:09:25.747Z,999.6
2022-08-26T23:12:25.749Z,999.6
2022-08-26T23:15:25.747Z,999.6
2022-08-26T23:17:25.774Z,999.6
2022-08-26T23:20:25.744Z,999.6
2022-08-26T23:22:25.736Z,999.6
2022-08-26T23:24:25.753Z,999.6
2022-08-26T23:26:25.760Z,999.6
2022-08-26T23:29:25.747Z,999.5
2022-08-26T23:32:25.768Z,999.5
2022-08-26T23:35:25.776Z,999.5
2022-08-26T23:38:25.898Z,999.5
2022-08-26T23:41:25.795Z,999.4
2022-08-26T23:44:25.751Z,999.4
2022-08-26T23:47:25.765Z,999.4
2022-08-26T23:50:25.766Z,999.5
2022-08-26T23:52:25.793Z,999.5
2022-08-26T23:55:25.728Z,999.4
2022-08-26T23:58:25.765Z,999.5
